nws-alerts: Checking more than four warning/county codes can delay the loading of your pages. You should use a cron job to get the data.

Nearby METAR Weather Reports

 

KETB - West Bend, WI
Distance from station: E 4mi, 6km
Updated: 01/22/2020 2:15am
Clear
Clear
 Wind from SSW
Wind: SSW 10 mph , 17 km/h, Gust: 17 mph , 28 km/h
Temperature: 23°F , -5°C
Wind Chill: 13°F , -11°C
Dew Point: 19°F , -7°C
Humidity: 86%
Barometer: 30.19 inHg , 1022.4 hPa
Clouds: Clear
Visibility: 10 miles , 16 km
2020/01/22 08:15 KETB 220815Z AUTO 20009G15KT 10SM CLR M05/M07 A3019 RMK AO2
KFLD - Fond Du Lac, WI
Distance from station: W 34mi, 54km
Updated: 01/22/2020 1:53am
Few Clouds
Few Clouds
 Wind from SSW
Wind: SSW 20 mph , 31 km/h, Gust: 29 mph , 46 km/h
Temperature: 23°F , -5°C
Wind Chill: 8°F , -13°C
Dew Point: 18°F , -8°C
Humidity: 80%
Barometer: 30.16 inHg , 1021.3 hPa
Clouds: Few Clouds
Visibility: 10 miles , 16 km
Cloud details: Few Clouds 1400 ft
2020/01/22 07:53 KFLD 220753Z AUTO 20017G25KT 10SM FEW014 M05/M08 A3016 RMK AO2 PK WND 20030/0716 SLP227 T10501083
 
KSBM - Sheboygan, WI
Distance from station: NE 36mi, 57km
Updated: 01/22/2020 1:53am
Clear
Clear
 Wind from SSW
Wind: SSW 16 mph , 26 km/h
Temperature: 21°F , -6°C
Wind Chill: 7°F , -14°C
Dew Point: 16°F , -9°C
Humidity: 80%
Barometer: 30.19 inHg , 1022.4 hPa
Clouds: Clear
Visibility: 10 miles , 16 km
2020/01/22 07:53 KSBM 220753Z AUTO 20014KT 10SM CLR M06/M09 A3019 RMK AO2 SLP235 T10611094
KMKE - Milwaukee, WI
Distance from station: S 44mi, 70km
Updated: 01/22/2020 1:52am
Mostly cloudy
Mostly cloudy
 Wind from SW
Wind: SW 15 mph , 24 km/h
Temperature: 25°F , -4°C
Wind Chill: 13°F , -11°C
Dew Point: 18°F , -8°C
Humidity: 74%
Barometer: 30.25 inHg , 1024.4 hPa
Clouds: Mostly cloudy
Visibility: 10 miles , 16 km
Cloud details: Mostly cloudy 25000 ft
2020/01/22 07:52 KMKE 220752Z 22013KT 10SM BKN250 M04/M08 A3025 RMK AO2 SLP255 T10441083
 
KOSH - Oshkosh, WI
Distance from station: WNW 52mi, 83km
Updated: 01/22/2020 1:53am
Clear
Clear
 Wind from SSW
Wind: SSW 20 mph , 31 km/h, Gust: 29 mph , 46 km/h
Temperature: 21°F , -6°C
Wind Chill: 6°F , -14°C
Dew Point: 16°F , -9°C
Humidity: 80%
Barometer: 30.14 inHg , 1020.7 hPa
Clouds: Clear
Visibility: 8 miles , 13 km
2020/01/22 07:53 KOSH 220753Z AUTO 20017G25KT 8SM CLR M06/M09 A3014 RMK AO2 PK WND 20028/0722 SLP227 T10611089
KENW - Kenosha, WI
Distance from station: SSE 69mi, 111km
Updated: 01/22/2020 1:53am
Clear
Clear
 Wind from SW
Wind: SW 14 mph , 22 km/h, Gust: 22 mph , 35 km/h
Temperature: 27°F , -3°C
Wind Chill: 16°F , -9°C
Dew Point: 19°F , -7°C
Humidity: 74%
Barometer: 30.27 inHg , 1025.1 hPa
Clouds: Clear
Visibility: 10 miles , 16 km
2020/01/22 07:53 KENW 220753Z AUTO 22012G19KT 10SM CLR M03/M07 A3027 RMK AO2 SLP262 T10331072 $
 
KMSN - Madison, WI
Distance from station: SW 69mi, 111km
Updated: 01/22/2020 1:53am
Clear
Clear
 
Temperature: 21°F , -6°C
Dew Point: 18°F , -8°C
Humidity: 86%
Barometer: 30.18 inHg , 1022 hPa
Clouds: Clear
Visibility: 9 miles , 14 km
2020/01/22 07:53 KMSN 220753Z AUTO 9SM CLR M06/M08 A3018 RMK AO2 SLP234 T10611083
KSAW - Marquette, MI
Distance from station: N 262mi, 421km
Updated: 01/22/2020 2:19am
Haze, Clear
Haze, Clear
 Wind from SSW
Wind: SSW 24 mph , 39 km/h, Gust: 32 mph , 52 km/h
Temperature: 19°F , -7°C
Wind Chill: 2°F , -17°C
Dew Point: 14°F , -10°C
Humidity: 79%
Barometer: 29.91 inHg , 1012.9 hPa
Summary: Haze
Clouds: Clear
Visibility: 4 miles , 6 km
2020/01/22 08:19 KSAW 220819Z AUTO 21021G28KT 4SM HZ CLR M07/M10 A2991 RMK AO2 T10741105
 
KIMT - Iron Mountain, MI
Distance from station: NNW 201mi, 323km
Updated: 01/22/2020 1:54am
Clear
Clear
 Wind from S
Wind: S 8 mph , 13 km/h
Temperature: 18°F , -8°C
Wind Chill: 8°F , -13°C
Dew Point: 10°F , -12°C
Humidity: 73%
Barometer: 29.99 inHg , 1015.6 hPa
Clouds: Clear
Visibility: 10 miles , 16 km
2020/01/22 07:54 KIMT 220754Z AUTO 17007KT 10SM CLR M08/M12 A2999 RMK AO2 SLP178 T10781122
KGRB - Green Bay, WI
Distance from station: NNW 87mi, 140km
Updated: 01/22/2020 1:53am
Partly cloudy
Partly cloudy
 Wind from SSW
Wind: SSW 12 mph , 19 km/h
Temperature: 21°F , -6°C
Wind Chill: 9°F , -13°C
Dew Point: 16°F , -9°C
Humidity: 80%
Barometer: 30.15 inHg , 1021 hPa
Clouds: Partly cloudy
Visibility: 10 miles , 16 km
Cloud details: Partly cloudy 1500 ft
2020/01/22 07:53 KGRB 220753Z AUTO 20010KT 10SM SCT015 M06/M09 A3015 RMK AO2 SLP221 T10611094
 
KAUW - Wausau, WI
Distance from station: NW 155mi, 249km
Updated: 01/21/2020 11:54pm
NOT Current
Clear
Clear
 Wind from S
Wind: S 13 mph , 20 km/h
Temperature: 18°F , -8°C
Wind Chill: 5°F , -15°C
Dew Point: 10°F , -12°C
Humidity: 73%
Barometer: 30.05 inHg , 1017.6 hPa
Clouds: Clear
Visibility: 8 miles , 13 km
2020/01/22 05:54 KAUW 220554Z AUTO 19011KT 8SM CLR M08/M12 A3005 RMK AO2 SLP203 T10831117 11072 21089 410611183 58022 $
KORD - Chicago O'Hare, IL
Distance from station: S 113mi, 181km
Updated: 01/22/2020 1:51am
Mostly cloudy
Mostly cloudy
 Wind from SSW
Wind: SSW 15 mph , 24 km/h, Gust: 21 mph , 33 km/h
Temperature: 25°F , -4°C
Wind Chill: 13°F , -11°C
Dew Point: 19°F , -7°C
Humidity: 80%
Barometer: 30.31 inHg , 1026.4 hPa
Clouds: Mostly cloudy
Visibility: 10 miles , 16 km
Cloud details: Mostly cloudy 25000 ft
2020/01/22 07:51 KORD 220751Z 20013G18KT 10SM BKN250 M04/M07 A3031 RMK AO2 SLP272 T10441072 $
 
KVOK - WIANG Volk Field, Camp Douglas, WI
Distance from station: WNW 120mi, 193km
Updated: 01/22/2020 1:56am
Clear
Clear
 Wind from S
Wind: S 9 mph , 15 km/h
Temperature: 23°F , -5°C
Wind Chill: 13°F , -11°C
Dew Point: 19°F , -7°C
Humidity: 86%
Barometer: 30.09 inHg , 1019 hPa
Clouds: Clear
Visibility: 10 miles , 16 km
2020/01/22 07:56 KVOK 220756Z AUTO 19008KT 10SM CLR M05/M07 A3009 RMK AO2 SLP207 T10541072
KLNR - Lone Rock, WI
Distance from station: W 114mi, 183km
Updated: 01/22/2020 1:56am
Clear
Clear
 Wind from SSW
Wind: SSW 10 mph , 17 km/h
Temperature: 23°F , -5°C
Wind Chill: 13°F , -11°C
Dew Point: 18°F , -8°C
Humidity: 80%
Barometer: 30.18 inHg , 1022 hPa
Clouds: Clear
Visibility: 10 miles , 16 km
2020/01/22 07:56 KLNR 220756Z AUTO 20009KT 10SM CLR M05/M08 A3018 RMK AO2 SLP226 T10501083